shopdcentertainment.com alexa rank chart, shopdcentertainment.com alexa rank daily changes

shopdcentertainment.com alexa rank chart, shopdcentertainment.com alexa rank daily changes

shopdcentertainment.com
Actual rank:
306 027

RANK HISTORY

Date Rank Diff
2017/10/17 306 027 -42 473
2017/10/16 348 500 +17 616
2017/10/14 330 884 -1 541
2017/10/13 332 425 -7 723
2017/10/12 340 148 +3 932
2017/10/11 336 216 -11 689
2017/10/10 347 905 -5 233
2017/10/09 353 138 +15 482
2017/10/08 337 656 -2 910
2017/10/07 340 566 +1 222
2017/10/06 339 344 +2 354
2017/10/05 336 990 -1 095
2017/10/04 338 085 +16 368
2017/10/03 321 717 -350
2017/10/02 322 067 -2 643
2017/10/01 324 710 +19 888
2017/09/30 304 822 -5 398
2017/09/29 310 220 +1 564
2017/09/28 308 656 +15 159
2017/09/27 293 497 +4 082
2017/09/26 289 415 -2 928
2017/09/25 292 343 -6 479
2017/09/24 298 822 +8 125
2017/09/23 290 697 +17 670
2017/09/22 273 027 -7 913
2017/09/20 280 940 -13 097
2017/09/19 294 037 -11 692
2017/09/18 305 729 -7 649
2017/09/17 313 378 +781
2017/09/16 312 597 -3 560
2017/09/15 316 157 +5 111
2017/09/14 311 046 +6 418
2017/09/13 304 628 +3 250
2017/09/12 301 378 +11 517
2017/09/11 289 861 +11 002
2017/09/10 278 859 -266
2017/09/09 279 125 -4 179
2017/09/08 283 304 +6 027
2017/09/07 277 277 +8 142
2017/09/06 269 135 +2 726
2017/09/05 266 409 +2 640
2017/09/04 263 769 -4 737
2017/09/03 268 506 +5 945
2017/09/02 262 561 +10 724
2017/09/01 251 837 -3 198
2017/08/31 255 035 -1 139
2017/08/30 256 174 +4 761
2017/08/29 251 413 -4 686
2017/08/28 256 099 +9 575
2017/08/27 246 524 +128
2017/08/26 246 396 +6 538
2017/08/25 239 858 +4 928
2017/08/24 234 930 -1 949
2017/08/23 236 879 +3 763
2017/08/22 233 116 +6 605
2017/08/21 226 511 +8 362
2017/08/20 218 149 +797
2017/08/19 217 352 +5 594
2017/08/18 211 758

WIDGET FOR YOUR SITE

DOMAINS WITH THE NEAREST RANK

Domain Rank
shopcoobie.com 306 022
ehrmedijugrupa.lv 306 023
overmundo.com.br 306 024
hansei.ac.kr 306 025
kil0bit.blogspot.in 306 026
shopdcentertainment.com 306 027
profil-klett.hr 306 028
edainikpurbokone.net 306 029
business-netz.com 306 030
58game.cn 306 031
intrasos.net 306 032

DOMAINS WITH THE NEAREST RANK BY TLD .com

Domain Rank
sexygoogle.com 306 013
printme.com 306 017
jokebuddha.com 306 019
torrevieja.com 306 021
shopcoobie.com 306 022
shopdcentertainment.com 306 027
business-netz.com 306 030
loefflerrandall.com 306 033
thespaceshop.com 306 035
omnicomgroup.com 306 037
bdlatestnews.com 306 039